createdAt,value
2018-08-03T00:00:21.352Z,988.68
2018-08-03T00:02:14.174Z,988.62
2018-08-03T00:03:14.098Z,988.62
2018-08-03T00:05:06.892Z,988.62
2018-08-03T00:06:06.845Z,988.62
2018-08-03T00:07:59.669Z,988.60
2018-08-03T00:08:59.592Z,988.66
2018-08-03T00:10:52.385Z,988.67
2018-08-03T00:11:52.341Z,988.71
2018-08-03T00:13:45.162Z,988.72
2018-08-03T00:14:45.086Z,988.70
2018-08-03T00:16:37.885Z,988.70
2018-08-03T00:17:37.834Z,988.68
2018-08-03T00:19:30.667Z,988.63
2018-08-03T00:20:30.579Z,988.64
2018-08-03T00:22:23.375Z,988.67
2018-08-03T00:23:23.327Z,988.62
2018-08-03T00:25:16.150Z,988.61
2018-08-03T00:26:16.074Z,988.57
2018-08-03T00:28:08.867Z,988.55
2018-08-03T00:29:08.826Z,988.59
2018-08-03T00:31:01.646Z,988.49
2018-08-03T00:32:01.572Z,988.50
2018-08-03T00:33:54.364Z,988.50
2018-08-03T00:34:54.317Z,988.52
2018-08-03T00:36:47.159Z,988.50
2018-08-03T00:37:47.065Z,988.49
2018-08-03T00:39:39.859Z,988.52
2018-08-03T00:40:39.812Z,988.54
2018-08-03T00:42:32.636Z,988.47
2018-08-03T00:43:32.560Z,988.55
2018-08-03T00:45:25.357Z,988.55
2018-08-03T00:46:25.311Z,988.54
2018-08-03T00:48:18.133Z,988.57
2018-08-03T00:49:18.056Z,988.56
2018-08-03T00:51:10.849Z,988.55
2018-08-03T00:52:10.803Z,988.55
2018-08-03T00:54:03.627Z,988.60
2018-08-03T00:55:03.550Z,988.57
2018-08-03T00:56:56.341Z,988.56
2018-08-03T00:57:56.295Z,988.51
2018-08-03T00:59:49.119Z,988.54
2018-08-03T01:00:49.043Z,988.52
2018-08-03T01:02:41.834Z,988.50
2018-08-03T01:03:41.787Z,988.54
2018-08-03T01:05:34.609Z,988.48
2018-08-03T01:06:34.533Z,988.50
2018-08-03T01:08:27.325Z,988.46
2018-08-03T01:09:27.277Z,988.46
2018-08-03T01:11:20.102Z,988.44
2018-08-03T01:12:20.026Z,988.39
2018-08-03T01:14:12.820Z,988.39
2018-08-03T01:15:12.770Z,988.43
2018-08-03T01:17:05.604Z,988.43
2018-08-03T01:18:05.518Z,988.47
2018-08-03T01:19:58.314Z,988.45
2018-08-03T01:20:58.264Z,988.48
2018-08-03T01:22:51.088Z,988.45
2018-08-03T01:23:51.013Z,988.47
2018-08-03T01:25:43.805Z,988.46
2018-08-03T01:26:43.758Z,988.43
2018-08-03T01:28:36.581Z,988.48
2018-08-03T01:29:36.502Z,988.48
2018-08-03T01:31:29.304Z,988.45
2018-08-03T01:32:29.251Z,988.47
2018-08-03T01:34:22.082Z,988.46
2018-08-03T01:35:22.001Z,988.47
2018-08-03T01:37:14.792Z,988.47
2018-08-03T01:38:14.742Z,988.46
2018-08-03T01:40:07.564Z,988.46
2018-08-03T01:41:07.488Z,988.43
2018-08-03T01:43:00.280Z,988.47
2018-08-03T01:44:00.233Z,988.42
2018-08-03T01:45:53.057Z,988.40
2018-08-03T01:46:52.981Z,988.40
2018-08-03T01:48:45.776Z,988.37
2018-08-03T01:49:45.727Z,988.38
2018-08-03T01:51:38.554Z,988.41
2018-08-03T01:52:38.476Z,988.40
2018-08-03T01:54:31.268Z,988.38
2018-08-03T01:55:31.222Z,988.31
2018-08-03T01:57:24.045Z,988.33
2018-08-03T01:58:23.969Z,988.30
2018-08-03T02:00:16.761Z,988.29
2018-08-03T02:01:16.713Z,988.33
2018-08-03T02:03:09.566Z,988.30
2018-08-03T02:04:09.460Z,988.29
2018-08-03T02:06:02.253Z,988.29
2018-08-03T02:07:02.206Z,988.31
2018-08-03T02:08:55.075Z,988.31
2018-08-03T02:09:54.953Z,988.30
2018-08-03T02:11:47.748Z,988.32
2018-08-03T02:12:47.699Z,988.27
2018-08-03T02:14:40.541Z,988.29
2018-08-03T02:15:40.446Z,988.28
2018-08-03T02:17:33.240Z,988.26
2018-08-03T02:18:33.193Z,988.21
2018-08-03T02:20:26.018Z,988.22
2018-08-03T02:21:25.940Z,988.20
2018-08-03T02:23:18.763Z,988.26
2018-08-03T02:24:18.688Z,988.24
2018-08-03T02:26:11.509Z,988.23
2018-08-03T02:27:11.435Z,988.22
2018-08-03T02:29:04.228Z,988.20
2018-08-03T02:30:04.181Z,988.18
2018-08-03T02:31:57.005Z,988.24
2018-08-03T02:32:56.928Z,988.26
2018-08-03T02:34:49.719Z,988.24
2018-08-03T02:35:49.671Z,988.31
2018-08-03T02:37:42.495Z,988.25
2018-08-03T02:38:42.420Z,988.26
2018-08-03T02:40:35.211Z,988.24
2018-08-03T02:41:35.164Z,988.21
2018-08-03T02:43:27.984Z,988.28
2018-08-03T02:44:27.907Z,988.27
2018-08-03T02:46:20.702Z,988.27
2018-08-03T02:47:20.656Z,988.30
2018-08-03T02:49:13.479Z,988.30
2018-08-03T02:50:13.403Z,988.32
2018-08-03T02:52:06.197Z,988.31
2018-08-03T02:53:06.150Z,988.32
2018-08-03T02:54:58.972Z,988.29
2018-08-03T02:55:58.896Z,988.28
2018-08-03T02:57:51.689Z,988.24
2018-08-03T02:58:51.642Z,988.23
2018-08-03T03:00:44.464Z,988.21
2018-08-03T03:01:44.386Z,988.24
2018-08-03T03:03:37.175Z,988.21
2018-08-03T03:04:37.129Z,988.25
2018-08-03T03:06:29.955Z,988.26
2018-08-03T03:07:29.976Z,988.26
2018-08-03T03:09:22.669Z,988.23
2018-08-03T03:10:22.620Z,988.21
2018-08-03T03:12:15.445Z,988.24
2018-08-03T03:13:15.367Z,988.19
2018-08-03T03:15:08.160Z,988.21
2018-08-03T03:16:08.111Z,988.18
2018-08-03T03:18:00.934Z,988.24
2018-08-03T03:19:00.858Z,988.26
2018-08-03T03:20:53.650Z,988.25
2018-08-03T03:21:53.603Z,988.26
2018-08-03T03:23:46.428Z,988.30
2018-08-03T03:24:46.349Z,988.31
2018-08-03T03:26:39.143Z,988.30
2018-08-03T03:27:39.095Z,988.36
2018-08-03T03:29:31.919Z,988.36
2018-08-03T03:30:31.841Z,988.33
2018-08-03T03:32:24.635Z,988.31
2018-08-03T03:33:24.643Z,988.37
2018-08-03T03:35:17.412Z,988.30
2018-08-03T03:36:17.335Z,988.30
2018-08-03T03:38:10.126Z,988.31
2018-08-03T03:39:10.079Z,988.30
2018-08-03T03:41:02.903Z,988.26
2018-08-03T03:42:02.831Z,988.33
2018-08-03T03:43:55.618Z,988.30
2018-08-03T03:44:55.571Z,988.31
2018-08-03T03:46:48.400Z,988.32
2018-08-03T03:47:48.318Z,988.29
2018-08-03T03:49:41.111Z,988.31
2018-08-03T03:50:41.064Z,988.27
2018-08-03T03:52:33.889Z,988.33
2018-08-03T03:53:33.812Z,988.32
2018-08-03T03:55:26.606Z,988.31
2018-08-03T03:56:26.561Z,988.34
2018-08-03T03:58:19.379Z,988.33
2018-08-03T03:59:19.332Z,988.34
2018-08-03T04:01:12.096Z,988.33
2018-08-03T04:02:12.053Z,988.30
2018-08-03T04:04:04.873Z,988.33
2018-08-03T04:05:04.795Z,988.38
2018-08-03T04:06:57.588Z,988.37
2018-08-03T04:07:57.542Z,988.43
2018-08-03T04:09:50.381Z,988.45
2018-08-03T04:10:50.291Z,988.45
2018-08-03T04:12:43.082Z,988.42
2018-08-03T04:13:43.034Z,988.43
2018-08-03T04:15:36.028Z,988.45
2018-08-03T04:16:35.782Z,988.46
2018-08-03T04:18:28.574Z,988.40
2018-08-03T04:19:28.526Z,988.42
2018-08-03T04:21:21.349Z,988.41
2018-08-03T04:22:21.272Z,988.44
2018-08-03T04:24:14.063Z,988.43
2018-08-03T04:25:14.016Z,988.40
2018-08-03T04:27:06.837Z,988.47
2018-08-03T04:28:06.760Z,988.49
2018-08-03T04:29:59.554Z,988.52
2018-08-03T04:30:59.503Z,988.48
2018-08-03T04:32:52.326Z,988.48
2018-08-03T04:33:52.250Z,988.45
2018-08-03T04:35:45.043Z,988.48
2018-08-03T04:36:44.995Z,988.47
2018-08-03T04:38:37.817Z,988.46
2018-08-03T04:39:37.742Z,988.46
2018-08-03T04:41:30.534Z,988.48
2018-08-03T04:42:30.533Z,988.47
2018-08-03T04:44:24.306Z,988.48
2018-08-03T04:45:24.225Z,988.53
2018-08-03T04:47:17.019Z,988.49
2018-08-03T04:48:16.973Z,988.50
2018-08-03T04:50:09.796Z,988.49
2018-08-03T04:51:09.720Z,988.51
2018-08-03T04:53:02.511Z,988.51
2018-08-03T04:54:02.462Z,988.54
2018-08-03T04:55:55.285Z,988.55
2018-08-03T04:56:55.209Z,988.54
2018-08-03T04:58:48.001Z,988.56
2018-08-03T04:59:47.954Z,988.59
2018-08-03T05:01:40.776Z,988.55
2018-08-03T05:02:40.700Z,988.56
2018-08-03T05:04:33.495Z,988.61
2018-08-03T05:05:33.447Z,988.57
2018-08-03T05:07:26.269Z,988.61
2018-08-03T05:08:26.192Z,988.58
2018-08-03T05:10:18.985Z,988.59
2018-08-03T05:11:18.937Z,988.57
2018-08-03T05:13:11.759Z,988.56
2018-08-03T05:14:11.685Z,988.55
2018-08-03T05:16:04.476Z,988.56
2018-08-03T05:17:04.428Z,988.61
2018-08-03T05:18:57.249Z,988.60
2018-08-03T05:19:57.173Z,988.59
2018-08-03T05:21:49.965Z,988.54
2018-08-03T05:22:49.919Z,988.58
2018-08-03T05:24:42.739Z,988.59
2018-08-03T05:25:42.662Z,988.54
2018-08-03T05:27:35.455Z,988.54
2018-08-03T05:28:35.408Z,988.57
2018-08-03T05:30:28.284Z,988.59
2018-08-03T05:31:28.154Z,988.60
2018-08-03T05:33:20.947Z,988.63
2018-08-03T05:34:20.900Z,988.59
2018-08-03T05:36:13.727Z,988.63
2018-08-03T05:37:13.646Z,988.61
2018-08-03T05:39:06.439Z,988.61
2018-08-03T05:40:06.392Z,988.65
2018-08-03T05:41:59.215Z,988.64
2018-08-03T05:42:59.138Z,988.62
2018-08-03T05:44:51.941Z,988.67
2018-08-03T05:45:51.881Z,988.70
2018-08-03T05:47:44.704Z,988.71
2018-08-03T05:48:44.630Z,988.75
2018-08-03T05:50:37.421Z,988.72
2018-08-03T05:51:37.373Z,988.72
2018-08-03T05:53:30.241Z,988.72
2018-08-03T05:54:30.116Z,988.69
2018-08-03T05:56:22.911Z,988.64
2018-08-03T05:57:22.865Z,988.66
2018-08-03T05:59:15.691Z,988.67
2018-08-03T06:00:15.612Z,988.67
2018-08-03T06:02:08.405Z,988.71
2018-08-03T06:03:08.360Z,988.68
2018-08-03T06:05:01.198Z,988.74
2018-08-03T06:06:01.107Z,988.69
2018-08-03T06:07:53.895Z,988.72
2018-08-03T06:08:53.848Z,988.74
2018-08-03T06:10:46.675Z,988.73
2018-08-03T06:11:46.598Z,988.70
2018-08-03T06:13:39.388Z,988.75
2018-08-03T06:14:39.340Z,988.75
2018-08-03T06:16:32.165Z,988.75
2018-08-03T06:17:32.092Z,988.78
2018-08-03T06:19:24.879Z,988.77
2018-08-03T06:20:24.832Z,988.80
2018-08-03T06:22:17.653Z,988.81
2018-08-03T06:23:17.577Z,988.81
2018-08-03T06:25:10.368Z,988.81
2018-08-03T06:26:10.322Z,988.79
2018-08-03T06:28:03.143Z,988.83
2018-08-03T06:29:03.065Z,988.83
2018-08-03T06:30:55.859Z,988.85
2018-08-03T06:31:55.814Z,988.83
2018-08-03T06:33:48.649Z,988.82
2018-08-03T06:34:48.566Z,988.84
2018-08-03T06:36:41.350Z,988.81
2018-08-03T06:37:41.305Z,988.81
2018-08-03T06:39:34.127Z,988.72
2018-08-03T06:40:34.050Z,988.66
2018-08-03T06:42:26.841Z,988.72
2018-08-03T06:43:26.793Z,988.72
2018-08-03T06:45:19.615Z,988.74
2018-08-03T06:46:19.539Z,988.76
2018-08-03T06:48:12.331Z,988.83
2018-08-03T06:49:12.285Z,988.74
2018-08-03T06:51:05.108Z,988.80
2018-08-03T06:52:05.032Z,988.81
2018-08-03T06:53:57.824Z,988.76
2018-08-03T06:54:57.777Z,988.72
2018-08-03T06:56:50.616Z,988.76
2018-08-03T06:57:50.525Z,988.83
2018-08-03T06:59:43.316Z,988.81
2018-08-03T07:00:43.289Z,988.85
2018-08-03T07:02:36.114Z,988.81
2018-08-03T07:03:36.017Z,988.74
2018-08-03T07:05:28.809Z,988.75
2018-08-03T07:06:28.763Z,988.73
2018-08-03T07:08:21.621Z,988.77
2018-08-03T07:09:21.506Z,988.69
2018-08-03T07:11:14.302Z,988.69
2018-08-03T07:12:14.257Z,988.72
2018-08-03T07:14:07.079Z,988.71
2018-08-03T07:15:07.001Z,988.68
2018-08-03T07:16:59.792Z,988.64
2018-08-03T07:17:59.759Z,988.61
2018-08-03T07:19:52.644Z,988.60
2018-08-03T07:20:52.493Z,988.60
2018-08-03T07:22:45.285Z,988.60
2018-08-03T07:23:45.238Z,988.60
2018-08-03T07:25:38.063Z,988.60
2018-08-03T07:26:37.986Z,988.63
2018-08-03T07:28:30.781Z,988.60
2018-08-03T07:29:30.734Z,988.58
2018-08-03T07:31:23.574Z,988.62
2018-08-03T07:32:23.481Z,988.65
2018-08-03T07:34:16.275Z,988.60
2018-08-03T07:35:16.227Z,988.58
2018-08-03T07:37:09.069Z,988.65
2018-08-03T07:38:08.975Z,988.64
2018-08-03T07:40:01.826Z,988.62
2018-08-03T07:41:01.723Z,988.66
2018-08-03T07:42:54.617Z,988.66
2018-08-03T07:43:54.470Z,988.65
2018-08-03T07:45:47.265Z,988.62
2018-08-03T07:46:47.218Z,988.63
2018-08-03T07:48:40.059Z,988.58
2018-08-03T07:49:39.963Z,988.55
2018-08-03T07:51:32.756Z,988.59
2018-08-03T07:52:32.731Z,988.59
2018-08-03T07:54:25.532Z,988.61
2018-08-03T07:55:25.461Z,988.61
2018-08-03T07:57:18.245Z,988.61
2018-08-03T07:58:18.200Z,988.59
2018-08-03T08:00:11.024Z,988.59
2018-08-03T08:01:10.947Z,988.56
2018-08-03T08:03:03.740Z,988.52
2018-08-03T08:04:03.692Z,988.52
2018-08-03T08:05:56.516Z,988.52
2018-08-03T08:06:56.440Z,988.51
2018-08-03T08:08:49.235Z,988.50
2018-08-03T08:09:49.188Z,988.46
2018-08-03T08:11:42.029Z,988.45
2018-08-03T08:12:41.935Z,988.48
2018-08-03T08:14:34.727Z,988.47
2018-08-03T08:15:34.697Z,988.44
2018-08-03T08:17:27.504Z,988.44
2018-08-03T08:18:27.425Z,988.49
2018-08-03T08:20:20.219Z,988.47
2018-08-03T08:21:20.172Z,988.46
2018-08-03T08:23:13.012Z,988.43
2018-08-03T08:24:12.920Z,988.42
2018-08-03T08:26:05.729Z,988.47
2018-08-03T08:27:05.667Z,988.46
2018-08-03T08:28:58.492Z,988.49
2018-08-03T08:29:58.415Z,988.49
2018-08-03T08:31:51.211Z,988.49
2018-08-03T08:32:51.164Z,988.45
2018-08-03T08:34:44.004Z,988.45
2018-08-03T08:35:43.915Z,988.43
2018-08-03T08:37:36.709Z,988.41
2018-08-03T08:38:36.659Z,988.41
2018-08-03T08:40:29.482Z,988.37
2018-08-03T08:41:29.403Z,988.38
2018-08-03T08:43:22.199Z,988.41
2018-08-03T08:44:22.150Z,988.37
2018-08-03T08:46:14.967Z,988.38
2018-08-03T08:47:14.894Z,988.31
2018-08-03T08:49:07.737Z,988.33
2018-08-03T08:50:07.637Z,988.31
2018-08-03T08:52:00.478Z,988.30
2018-08-03T08:53:00.446Z,988.30
2018-08-03T08:54:53.219Z,988.30
2018-08-03T08:55:53.130Z,988.30
2018-08-03T08:57:45.955Z,988.32
2018-08-03T08:58:45.880Z,988.29
2018-08-03T09:00:38.672Z,988.34
2018-08-03T09:01:38.627Z,988.31
2018-08-03T09:03:31.466Z,988.31
2018-08-03T09:04:31.373Z,988.32
2018-08-03T09:06:24.168Z,988.29
2018-08-03T09:07:24.126Z,988.28
2018-08-03T09:09:16.963Z,988.26
2018-08-03T09:10:16.871Z,988.29
2018-08-03T09:12:09.671Z,988.28
2018-08-03T09:13:09.646Z,988.26
2018-08-03T09:15:02.445Z,988.26
2018-08-03T09:16:02.367Z,988.23
2018-08-03T09:17:55.156Z,988.22
2018-08-03T09:18:55.108Z,988.24
2018-08-03T09:20:47.947Z,988.21
2018-08-03T09:21:47.853Z,988.21
2018-08-03T09:23:40.647Z,988.20
2018-08-03T09:24:40.672Z,988.16
2018-08-03T09:26:33.442Z,988.22
2018-08-03T09:27:33.347Z,988.21
2018-08-03T09:29:26.140Z,988.18
2018-08-03T09:30:26.093Z,988.17
2018-08-03T09:32:18.916Z,988.12
2018-08-03T09:33:18.840Z,988.10
2018-08-03T09:35:11.633Z,988.12
2018-08-03T09:36:11.587Z,988.09
2018-08-03T09:38:04.429Z,988.05
2018-08-03T09:39:04.334Z,988.08
2018-08-03T09:40:57.132Z,988.02
2018-08-03T09:41:57.081Z,988.02
2018-08-03T09:43:49.906Z,987.99
2018-08-03T09:44:49.830Z,987.96
2018-08-03T09:46:42.621Z,987.93
2018-08-03T09:47:42.575Z,987.96
2018-08-03T09:49:35.415Z,987.93
2018-08-03T09:50:35.321Z,987.91
2018-08-03T09:52:28.116Z,987.89
2018-08-03T09:53:28.069Z,987.84
2018-08-03T09:55:20.911Z,987.85
2018-08-03T09:56:20.816Z,987.81
2018-08-03T09:58:13.611Z,987.83
2018-08-03T09:59:13.566Z,987.86
2018-08-03T10:01:06.406Z,987.83
2018-08-03T10:02:06.312Z,987.83
2018-08-03T10:03:59.107Z,987.73
2018-08-03T10:04:59.058Z,987.75
2018-08-03T10:06:51.898Z,987.77
2018-08-03T10:07:51.806Z,987.79
2018-08-03T10:09:44.599Z,987.74
2018-08-03T10:10:44.553Z,987.77
2018-08-03T10:12:37.378Z,987.73
2018-08-03T10:13:37.303Z,987.67
2018-08-03T10:15:30.106Z,987.72
2018-08-03T10:16:30.051Z,987.68
2018-08-03T10:18:22.877Z,987.69
2018-08-03T10:19:22.795Z,987.68
2018-08-03T10:21:15.592Z,987.60
2018-08-03T10:22:15.581Z,987.58
2018-08-03T10:24:08.365Z,987.61
2018-08-03T10:25:08.289Z,987.65
2018-08-03T10:27:01.084Z,987.60
2018-08-03T10:28:01.034Z,987.61
2018-08-03T10:29:53.857Z,987.54
2018-08-03T10:30:53.782Z,987.53
2018-08-03T10:32:46.575Z,987.51
2018-08-03T10:33:46.530Z,987.56
2018-08-03T10:35:39.350Z,987.45
2018-08-03T10:36:39.273Z,987.45
2018-08-03T10:38:32.068Z,987.43
2018-08-03T10:39:32.019Z,987.40
2018-08-03T10:41:24.861Z,987.41
2018-08-03T10:42:24.766Z,987.40
2018-08-03T10:44:17.561Z,987.36
2018-08-03T10:45:17.515Z,987.36
2018-08-03T10:47:10.351Z,987.36
2018-08-03T10:48:10.258Z,987.41
2018-08-03T10:50:03.053Z,987.33
2018-08-03T10:51:03.006Z,987.33
2018-08-03T10:52:55.847Z,987.35
2018-08-03T10:53:55.754Z,987.32
2018-08-03T10:55:48.547Z,987.32
2018-08-03T10:56:48.498Z,987.31
2018-08-03T10:58:41.329Z,987.32
2018-08-03T10:59:41.243Z,987.33
2018-08-03T11:01:34.043Z,987.28
2018-08-03T11:02:33.991Z,987.30
2018-08-03T11:04:26.831Z,987.28
2018-08-03T11:05:26.744Z,987.25
2018-08-03T11:07:19.530Z,987.22
2018-08-03T11:08:19.483Z,987.21
2018-08-03T11:10:12.325Z,987.21
2018-08-03T11:11:12.231Z,987.18
2018-08-03T11:13:06.019Z,987.11
2018-08-03T11:14:06.056Z,987.13
2018-08-03T11:15:58.814Z,987.10
2018-08-03T11:16:58.723Z,987.15
2018-08-03T11:18:51.513Z,987.11
2018-08-03T11:19:51.467Z,987.09
2018-08-03T11:21:44.329Z,987.09
2018-08-03T11:22:44.216Z,987.10
2018-08-03T11:24:37.011Z,987.03
2018-08-03T11:25:36.963Z,987.05
2018-08-03T11:27:29.802Z,986.99
2018-08-03T11:28:29.708Z,987.00
2018-08-03T11:30:22.501Z,986.95
2018-08-03T11:31:22.451Z,986.98
2018-08-03T11:33:15.296Z,986.97
2018-08-03T11:34:15.201Z,986.92
2018-08-03T11:36:07.994Z,986.95
2018-08-03T11:37:07.946Z,986.94
2018-08-03T11:39:00.784Z,986.95
2018-08-03T11:40:00.700Z,986.92
2018-08-03T11:41:53.484Z,986.85
2018-08-03T11:42:53.437Z,986.84
2018-08-03T11:44:46.279Z,986.81
2018-08-03T11:45:46.185Z,986.81
2018-08-03T11:47:38.975Z,986.82
2018-08-03T11:48:38.929Z,986.78
2018-08-03T11:50:31.751Z,986.75
2018-08-03T11:51:31.672Z,986.76
2018-08-03T11:53:24.473Z,986.73
2018-08-03T11:54:24.418Z,986.76
2018-08-03T11:56:17.240Z,986.78
2018-08-03T11:57:17.165Z,986.79
2018-08-03T11:59:09.957Z,986.72
2018-08-03T12:00:09.912Z,986.73
2018-08-03T12:02:02.830Z,986.73
2018-08-03T12:03:02.658Z,986.72
2018-08-03T12:04:55.451Z,986.66
2018-08-03T12:05:55.403Z,986.68
2018-08-03T12:07:48.246Z,986.61
2018-08-03T12:08:48.152Z,986.60
2018-08-03T12:10:40.943Z,986.56
2018-08-03T12:11:40.899Z,986.64
2018-08-03T12:13:33.719Z,986.57
2018-08-03T12:14:33.644Z,986.57
2018-08-03T12:16:26.435Z,986.48
2018-08-03T12:17:26.389Z,986.52
2018-08-03T12:19:19.213Z,986.51
2018-08-03T12:20:19.136Z,986.57
2018-08-03T12:22:11.930Z,986.50
2018-08-03T12:23:11.883Z,986.51
2018-08-03T12:25:04.719Z,986.47
2018-08-03T12:26:04.631Z,986.50
2018-08-03T12:27:57.425Z,986.47
2018-08-03T12:28:57.379Z,986.47
2018-08-03T12:30:50.208Z,986.44
2018-08-03T12:31:50.130Z,986.40
2018-08-03T12:33:42.920Z,986.37
2018-08-03T12:34:42.874Z,986.37
2018-08-03T12:36:35.697Z,986.39
2018-08-03T12:37:35.621Z,986.37
2018-08-03T12:39:28.415Z,986.41
2018-08-03T12:40:28.369Z,986.40
2018-08-03T12:42:21.196Z,986.38
2018-08-03T12:43:21.156Z,986.38
2018-08-03T12:45:13.910Z,986.31
2018-08-03T12:46:13.864Z,986.33
2018-08-03T12:48:06.704Z,986.33
2018-08-03T12:49:06.611Z,986.33
2018-08-03T12:50:59.405Z,986.29
2018-08-03T12:51:59.359Z,986.28
2018-08-03T12:53:52.185Z,986.25
2018-08-03T12:54:52.109Z,986.29
2018-08-03T12:56:44.941Z,986.24
2018-08-03T12:57:44.858Z,986.28
2018-08-03T12:59:37.695Z,986.30
2018-08-03T13:00:37.605Z,986.24
2018-08-03T13:02:30.411Z,986.19
2018-08-03T13:03:30.350Z,986.20
2018-08-03T13:05:23.191Z,986.21
2018-08-03T13:06:23.097Z,986.21
2018-08-03T13:08:16.011Z,986.16
2018-08-03T13:09:15.842Z,986.11
2018-08-03T13:11:08.668Z,986.12
2018-08-03T13:12:08.590Z,986.08
2018-08-03T13:14:01.382Z,986.13
2018-08-03T13:15:01.444Z,986.06
2018-08-03T13:16:54.180Z,986.11
2018-08-03T13:17:54.083Z,986.08
2018-08-03T13:19:46.876Z,986.07
2018-08-03T13:20:46.830Z,986.06
2018-08-03T13:22:39.654Z,986.08
2018-08-03T13:23:39.579Z,986.11
2018-08-03T13:25:32.372Z,986.03
2018-08-03T13:26:32.325Z,986.07
2018-08-03T13:28:25.152Z,986.02
2018-08-03T13:29:25.099Z,986.05
2018-08-03T13:31:17.869Z,986.00
2018-08-03T13:32:18.474Z,986.04
2018-08-03T13:34:10.646Z,986.01
2018-08-03T13:35:10.573Z,985.99
2018-08-03T13:37:03.363Z,985.99
2018-08-03T13:38:03.318Z,985.93
2018-08-03T13:39:56.177Z,985.96
2018-08-03T13:40:56.083Z,985.86
2018-08-03T13:42:48.876Z,985.87
2018-08-03T13:43:48.829Z,985.85
2018-08-03T13:45:41.655Z,985.82
2018-08-03T13:46:41.576Z,985.82
2018-08-03T13:48:34.371Z,985.80
2018-08-03T13:49:34.323Z,985.80
2018-08-03T13:51:27.167Z,985.80
2018-08-03T13:52:27.074Z,985.78
2018-08-03T13:54:19.865Z,985.77
2018-08-03T13:55:19.819Z,985.71
2018-08-03T13:57:12.659Z,985.74
2018-08-03T13:58:12.564Z,985.71
2018-08-03T14:00:05.357Z,985.72
2018-08-03T14:01:05.309Z,985.69
2018-08-03T14:02:58.134Z,985.66
2018-08-03T14:03:58.104Z,985.67
2018-08-03T14:05:50.850Z,985.64
2018-08-03T14:06:50.805Z,985.68
2018-08-03T14:08:43.626Z,985.64
2018-08-03T14:09:43.552Z,985.64
2018-08-03T14:11:36.343Z,985.62
2018-08-03T14:12:36.297Z,985.64
2018-08-03T14:14:29.122Z,985.65
2018-08-03T14:15:29.051Z,985.65
2018-08-03T14:17:21.840Z,985.67
2018-08-03T14:18:21.794Z,985.65
2018-08-03T14:20:14.616Z,985.62
2018-08-03T14:21:14.542Z,985.61
2018-08-03T14:23:07.334Z,985.58
2018-08-03T14:24:07.287Z,985.56
2018-08-03T14:26:00.110Z,985.54
2018-08-03T14:27:00.033Z,985.52
2018-08-03T14:28:52.831Z,985.54
2018-08-03T14:29:52.780Z,985.53
2018-08-03T14:31:45.680Z,985.48
2018-08-03T14:32:45.526Z,985.48
2018-08-03T14:34:38.319Z,985.50
2018-08-03T14:35:38.296Z,985.47
2018-08-03T14:37:31.114Z,985.47
2018-08-03T14:38:31.020Z,985.43
2018-08-03T14:40:23.812Z,985.44
2018-08-03T14:41:23.839Z,985.43
2018-08-03T14:43:16.588Z,985.41
2018-08-03T14:44:16.510Z,985.39
2018-08-03T14:46:09.303Z,985.38
2018-08-03T14:47:09.257Z,985.36
2018-08-03T14:49:02.097Z,985.37
2018-08-03T14:50:02.022Z,985.35
2018-08-03T14:51:54.800Z,985.37
2018-08-03T14:52:54.752Z,985.36
2018-08-03T14:54:47.592Z,985.34
2018-08-03T14:55:47.499Z,985.31
2018-08-03T14:57:40.295Z,985.31
2018-08-03T14:58:40.247Z,985.30
2018-08-03T15:00:33.071Z,985.28
2018-08-03T15:01:32.997Z,985.32
2018-08-03T15:03:25.788Z,985.29
2018-08-03T15:04:25.744Z,985.24
2018-08-03T15:06:18.566Z,985.23
2018-08-03T15:07:18.490Z,985.22
2018-08-03T15:09:11.284Z,985.19
2018-08-03T15:10:11.238Z,985.14
2018-08-03T15:12:04.078Z,985.15
2018-08-03T15:13:03.984Z,985.13
2018-08-03T15:14:56.778Z,985.14
2018-08-03T15:15:56.731Z,985.09
2018-08-03T15:17:49.574Z,985.05
2018-08-03T15:18:49.478Z,985.08
2018-08-03T15:20:42.271Z,985.08
2018-08-03T15:21:42.224Z,985.05
2018-08-03T15:23:35.048Z,985.05
2018-08-03T15:24:34.973Z,985.05
2018-08-03T15:26:27.774Z,985.01
2018-08-03T15:27:27.724Z,985.03
2018-08-03T15:29:20.565Z,985.02
2018-08-03T15:30:20.474Z,984.99
2018-08-03T15:32:13.264Z,984.91
2018-08-03T15:33:13.218Z,984.92
2018-08-03T15:35:06.069Z,984.96
2018-08-03T15:36:05.961Z,984.93
2018-08-03T15:37:58.756Z,984.91
2018-08-03T15:38:58.711Z,984.93
2018-08-03T15:40:51.603Z,984.92
2018-08-03T15:41:51.459Z,984.91
2018-08-03T15:43:44.253Z,984.87
2018-08-03T15:44:44.257Z,984.91
2018-08-03T15:46:37.032Z,984.91
2018-08-03T15:47:36.955Z,984.88
2018-08-03T15:49:29.747Z,984.90
2018-08-03T15:50:29.702Z,984.86
2018-08-03T15:52:22.526Z,984.88
2018-08-03T15:53:22.451Z,984.84
2018-08-03T15:55:15.245Z,984.86
2018-08-03T15:56:15.200Z,984.84
2018-08-03T15:58:08.024Z,984.84
2018-08-03T15:59:07.949Z,984.86
2018-08-03T16:01:00.743Z,984.84
2018-08-03T16:02:00.701Z,984.82
2018-08-03T16:03:53.521Z,984.76
2018-08-03T16:04:53.444Z,984.75
2018-08-03T16:06:46.244Z,984.71
2018-08-03T16:07:46.193Z,984.74
2018-08-03T16:09:39.037Z,984.73
2018-08-03T16:10:38.938Z,984.67
2018-08-03T16:12:31.733Z,984.69
2018-08-03T16:13:31.687Z,984.66
2018-08-03T16:15:24.508Z,984.67
2018-08-03T16:16:24.434Z,984.66
2018-08-03T16:18:17.226Z,984.66
2018-08-03T16:19:17.177Z,984.61
2018-08-03T16:21:10.617Z,984.61
2018-08-03T16:22:09.926Z,984.62
2018-08-03T16:24:02.717Z,984.60
2018-08-03T16:25:02.671Z,984.60
2018-08-03T16:26:55.511Z,984.62
2018-08-03T16:27:55.416Z,984.62
2018-08-03T16:29:48.213Z,984.59
2018-08-03T16:30:48.165Z,984.61
2018-08-03T16:32:40.989Z,984.61
2018-08-03T16:33:40.909Z,984.57
2018-08-03T16:35:33.707Z,984.53
2018-08-03T16:36:33.659Z,984.52
2018-08-03T16:38:26.484Z,984.57
2018-08-03T16:39:26.407Z,984.57
2018-08-03T16:41:19.203Z,984.55
2018-08-03T16:42:19.155Z,984.55
2018-08-03T16:44:11.981Z,984.53
2018-08-03T16:45:11.904Z,984.54
2018-08-03T16:47:04.696Z,984.52
2018-08-03T16:48:04.652Z,984.49
2018-08-03T16:49:57.476Z,984.50
2018-08-03T16:50:57.397Z,984.51
2018-08-03T16:52:50.194Z,984.48
2018-08-03T16:53:50.145Z,984.53
2018-08-03T16:55:42.971Z,984.51
2018-08-03T16:56:42.895Z,984.57
2018-08-03T16:58:35.688Z,984.52
2018-08-03T16:59:35.641Z,984.50
2018-08-03T17:01:28.484Z,984.45
2018-08-03T17:02:28.391Z,984.48
2018-08-03T17:04:21.183Z,984.49
2018-08-03T17:05:21.137Z,984.43
2018-08-03T17:07:14.130Z,984.43
2018-08-03T17:08:13.883Z,984.39
2018-08-03T17:10:06.679Z,984.43
2018-08-03T17:11:06.633Z,984.41
2018-08-03T17:12:59.459Z,984.40
2018-08-03T17:13:59.382Z,984.43
2018-08-03T17:15:52.186Z,984.39
2018-08-03T17:16:52.140Z,984.39
2018-08-03T17:18:44.961Z,984.39
2018-08-03T17:19:44.888Z,984.41
2018-08-03T17:21:37.687Z,984.44
2018-08-03T17:22:37.642Z,984.42
2018-08-03T17:24:30.464Z,984.41
2018-08-03T17:25:30.427Z,984.40
2018-08-03T17:27:23.206Z,984.41
2018-08-03T17:28:23.135Z,984.41
2018-08-03T17:30:15.975Z,984.41
2018-08-03T17:31:15.882Z,984.40
2018-08-03T17:33:08.677Z,984.40
2018-08-03T17:34:08.631Z,984.40
2018-08-03T17:36:01.454Z,984.40
2018-08-03T17:37:01.440Z,984.40
2018-08-03T17:38:54.176Z,984.36
2018-08-03T17:39:54.130Z,984.39
2018-08-03T17:41:46.953Z,984.36
2018-08-03T17:42:46.898Z,984.40
2018-08-03T17:44:39.671Z,984.39
2018-08-03T17:45:39.719Z,984.37
2018-08-03T17:47:32.449Z,984.41
2018-08-03T17:48:32.372Z,984.42
2018-08-03T17:50:25.186Z,984.39
2018-08-03T17:51:25.121Z,984.40
2018-08-03T17:53:17.945Z,984.38
2018-08-03T17:54:17.869Z,984.42
2018-08-03T17:56:10.734Z,984.38
2018-08-03T17:57:10.616Z,984.40